Time;durP1;ratioP1;P1;durP2;ratioP2;P2;SDS_P1;SDS_P2;PMS_P1;PMS_P2;Temp;Humidity;BMP_temperature;BMP_pressure;BME280_temperature;BME280_humidity;BME280_pressure;Samples;Min_cycle;Max_cycle;Signal;HPM_P1;HPM_P2
2023/01/30 21:01:22;;;;;;;10.73;2.50;;;;;;;7.37;84.92;101716.94;5031759;28;20389;-42
2023/01/30 21:03:51;;;;;;;12.70;2.97;;;;;;;7.35;85.07;101713.69;5029061;28;20104;-42
2023/01/30 21:06:22;;;;;;;12.45;2.85;;;;;;;7.34;85.29;101717.53;5034925;28;20128;-41
2023/01/30 21:09:12;;;;;;;11.73;2.28;;;;;;;7.32;85.20;101723.38;5033012;28;20138;-42
2023/01/30 21:11:39;;;;;;;8.43;2.58;;;;;;;7.32;85.30;101708.75;5036086;28;20037;-43
2023/01/30 21:14:06;;;;;;;9.63;2.22;;;;;;;7.32;85.30;101708.75;5029168;28;20049;-48
2023/01/30 21:16:34;;;;;;;16.08;3.80;;;;;;;7.33;85.38;101713.16;5034052;28;20136;-45
2023/01/30 21:19:04;;;;;;;9.70;2.10;;;;;;;7.39;85.41;101711.94;5031854;28;20441;-42
2023/01/30 21:21:31;;;;;;;10.02;3.88;;;;;;;7.44;85.36;101711.84;5033284;28;20138;-45
2023/01/30 21:24:01;;;;;;;7.90;2.58;;;;;;;7.49;85.44;101713.72;5030769;28;20045;-42
2023/01/30 21:26:30;;;;;;;9.05;2.83;;;;;;;7.54;85.50;101700.69;5038446;28;20494;-42
2023/01/30 21:28:59;;;;;;;9.25;2.15;;;;;;;7.59;85.56;101706.13;5019679;28;20487;-41
2023/01/30 21:31:29;;;;;;;5.25;1.88;;;;;;;7.62;85.57;101708.28;5031262;28;20045;-49
2023/01/30 21:33:57;;;;;;;5.78;1.98;;;;;;;7.63;85.51;101723.66;5033723;28;20108;-42
2023/01/30 21:36:26;;;;;;;8.20;2.22;;;;;;;7.62;85.79;101705.50;5034731;28;20144;-43
2023/01/30 21:44:32;;;;;;;11.13;2.15;;;;;;;7.55;86.47;101685.78;5031631;28;20061;-42
2023/01/30 21:46:58;;;;;;;;;;;;;;;7.53;86.48;101698.22;5031257;28;20050;-42
2023/01/30 21:49:25;;;;;;;12.20;4.55;;;;;;;7.49;86.56;101687.00;5034703;28;20337;-45
2023/01/30 21:51:53;;;;;;;9.07;2.35;;;;;;;7.47;86.58;101683.72;5032948;28;20037;-48
2023/01/30 21:54:20;;;;;;;10.73;2.60;;;;;;;7.48;86.75;101674.34;5029257;28;20492;-42
2023/01/30 21:56:48;;;;;;;11.07;2.38;;;;;;;7.46;86.91;101687.59;5032227;28;20045;-45
2023/01/30 21:59:15;;;;;;;11.48;2.50;;;;;;;7.46;86.82;101673.81;5032239;28;20061;-44
2023/01/30 22:01:42;;;;;;;12.32;3.65;;;;;;;7.47;86.92;101680.13;5033830;28;20076;-45
2023/01/30 22:04:15;;;;;;;10.10;2.97;;;;;;;7.48;87.00;101663.31;5027860;28;20049;-47
2023/01/30 22:06:42;;;;;;;11.40;2.47;;;;;;;7.49;87.02;101659.44;5027390;28;20065;-44
2023/01/30 22:09:13;;;;;;;7.75;2.28;;;;;;;7.51;87.00;101659.97;5026963;28;20495;-45
2023/01/30 22:11:40;;;;;;;9.57;2.83;;;;;;;7.53;86.95;101651.38;5035893;28;20050;-43
2023/01/30 22:14:07;;;;;;;4.28;2.42;;;;;;;7.55;86.92;101652.72;5014375;28;20407;-45
2023/01/30 22:16:33;;;;;;;4.03;1.50;;;;;;;7.57;87.04;101635.88;5021398;28;20515;-48
2023/01/30 22:19:03;;;;;;;6.72;1.58;;;;;;;7.56;86.88;101637.00;5017679;28;20128;-43
2023/01/30 22:21:33;;;;;;;9.15;3.13;;;;;;;7.54;86.98;101645.59;5016509;28;20132;-43
2023/01/30 22:24:02;;;;;;;5.60;1.98;;;;;;;7.53;87.11;101649.44;5019179;28;20065;-43
2023/01/30 22:26:29;;;;;;;7.57;2.13;;;;;;;7.51;87.16;101651.69;5012886;28;20037;-44
2023/01/30 22:28:58;;;;;;;9.32;2.10;;;;;;;7.49;87.21;101653.94;5013079;28;20493;-42
2023/01/30 22:31:26;;;;;;;12.27;2.65;;;;;;;7.49;87.27;101648.44;5013114;28;20049;-43
2023/01/30 22:33:55;;;;;;;6.20;2.10;;;;;;;7.50;87.18;101647.28;5020469;28;20148;-43
2023/01/30 22:36:23;;;;;;;6.82;2.30;;;;;;;7.51;87.28;101643.44;5014072;28;20041;-46
2023/01/30 22:38:51;;;;;;;9.95;2.15;;;;;;;7.52;87.39;101647.81;5021043;28;20053;-45
2023/01/30 22:41:23;;;;;;;7.03;2.30;;;;;;;7.52;87.44;101642.28;5021276;28;20117;-45
2023/01/30 22:43:55;;;;;;;16.65;3.47;;;;;;;7.53;87.42;101643.13;5012375;28;20046;-44
2023/01/30 22:46:24;;;;;;;;;;;;;;;7.52;87.44;101639.53;5012840;28;20054;-46
2023/01/30 22:48:51;;;;;;;14.25;2.30;;;;;;;7.51;87.25;101629.66;5020879;28;19925;-43
2023/01/30 22:51:27;;;;;;;7.55;1.70;;;;;;;7.50;87.39;101625.25;5016181;28;20048;-43
2023/01/30 22:53:56;;;;;;;12.85;2.60;;;;;;;7.46;87.34;101632.50;5021355;28;20073;-48
2023/01/30 22:56:35;;;;;;;10.20;2.05;;;;;;;7.43;87.63;101633.09;5015509;28;20052;-47
2023/01/30 22:59:03;;;;;;;9.10;2.08;;;;;;;7.44;87.58;101631.97;5015088;28;20377;-47
2023/01/30 23:01:36;;;;;;;5.05;1.65;;;;;;;7.44;87.69;101623.69;5018812;28;20052;-44
2023/01/30 23:04:06;;;;;;;10.90;3.20;;;;;;;7.45;87.58;101630.03;5018373;28;20148;-44
2023/01/30 23:06:33;;;;;;;8.25;2.83;;;;;;;7.44;87.63;101629.22;5023184;28;20095;-44
2023/01/30 23:09:01;;;;;;;13.65;3.35;;;;;;;7.44;87.75;101620.94;5014787;28;20052;-50
2023/01/30 23:11:43;;;;;;;12.52;3.03;;;;;;;7.46;87.78;101610.47;5023001;28;20048;-44
2023/01/30 23:14:13;;;;;;;11.07;2.28;;;;;;;7.47;87.80;101619.50;5020533;28;20104;-45
2023/01/30 23:16:42;;;;;;;6.47;2.28;;;;;;;7.48;87.98;101608.22;5021081;28;20041;-43
2023/01/30 23:19:11;;;;;;;4.75;2.10;;;;;;;7.50;87.90;101611.47;5018479;28;20046;-44
2023/01/30 23:21:43;;;;;;;9.82;2.42;;;;;;;7.52;88.06;101613.94;5016094;28;20057;-44
2023/01/30 23:24:19;;;;;;;17.63;5.10;;;;;;;7.52;87.88;101603.72;5014002;28;20045;-46
2023/01/30 23:26:49;;;;;;;10.45;2.17;;;;;;;7.52;88.00;101603.72;5012783;28;20090;-42
2023/01/30 23:29:18;;;;;;;9.65;1.90;;;;;;;7.51;88.00;101596.59;5016120;28;20050;-49
2023/01/30 23:31:46;;;;;;;15.73;2.53;;;;;;;7.52;88.29;101597.41;5011551;28;20050;-50
2023/01/30 23:34:17;;;;;;;8.82;1.85;;;;;;;7.51;88.29;101593.84;5027442;28;20053;-43
2023/01/30 23:36:45;;;;;;;10.65;2.13;;;;;;;7.51;88.44;101596.59;5025504;28;20054;-49
2023/01/30 23:39:13;;;;;;;9.05;2.58;;;;;;;7.49;88.59;101600.78;5029293;28;20053;-44
2023/01/30 23:41:41;;;;;;;6.28;1.90;;;;;;;7.48;88.77;101599.94;5026041;28;20111;-47
2023/01/30 23:44:08;;;;;;;6.78;1.92;;;;;;;7.47;89.05;101579.00;5018315;28;20038;-51
2023/01/30 23:46:37;;;;;;;6.50;1.75;;;;;;;7.47;89.15;101579.00;5027651;28;20033;-45
2023/01/30 23:49:10;;;;;;;3.72;1.60;;;;;;;7.49;89.08;101581.47;5014380;28;20100;-42
2023/01/30 23:51:39;;;;;;;7.93;1.70;;;;;;;7.49;89.16;101571.28;5027299;28;20041;-43
2023/01/30 23:54:07;;;;;;;8.20;2.17;;;;;;;7.50;89.29;101572.91;5026606;28;20703;-43
2023/01/30 23:56:36;;;;;;;8.93;1.60;;;;;;;7.49;89.47;101571.28;5022956;28;20072;-43
2023/01/30 23:59:03;;;;;;;6.47;2.20;;;;;;;7.52;89.56;101558.84;5018522;28;20499;-48
